sensor_id;sensor_type;location;lat;lon;timestamp;P1;durP1;ratioP1;P2;durP2;ratioP2
58091;SDS011;43896;48.178;11.578;2022-10-31T00:01:09;16.10;;;9.45;;
58091;SDS011;43896;48.178;11.578;2022-10-31T00:03:38;17.88;;;9.70;;
58091;SDS011;43896;48.178;11.578;2022-10-31T00:06:04;19.27;;;9.10;;
58091;SDS011;43896;48.178;11.578;2022-10-31T00:08:29;17.25;;;9.18;;
58091;SDS011;43896;48.178;11.578;2022-10-31T00:10:54;20.48;;;9.57;;
58091;SDS011;43896;48.178;11.578;2022-10-31T00:13:20;17.50;;;9.05;;
58091;SDS011;43896;48.178;11.578;2022-10-31T00:15:45;15.85;;;8.65;;
58091;SDS011;43896;48.178;11.578;2022-10-31T00:18:10;16.95;;;8.55;;
58091;SDS011;43896;48.178;11.578;2022-10-31T00:20:36;17.77;;;8.63;;
58091;SDS011;43896;48.178;11.578;2022-10-31T00:23:03;16.63;;;8.75;;
58091;SDS011;43896;48.178;11.578;2022-10-31T00:25:32;16.38;;;8.90;;
58091;SDS011;43896;48.178;11.578;2022-10-31T00:30:24;18.58;;;9.05;;
58091;SDS011;43896;48.178;11.578;2022-10-31T00:32:49;17.35;;;9.05;;
58091;SDS011;43896;48.178;11.578;2022-10-31T00:35:15;17.02;;;9.20;;
58091;SDS011;43896;48.178;11.578;2022-10-31T00:37:40;18.05;;;9.27;;
58091;SDS011;43896;48.178;11.578;2022-10-31T00:40:06;17.42;;;9.60;;
58091;SDS011;43896;48.178;11.578;2022-10-31T00:42:31;17.55;;;8.02;;
58091;SDS011;43896;48.178;11.578;2022-10-31T00:44:57;14.38;;;8.70;;
58091;SDS011;43896;48.178;11.578;2022-10-31T00:47:22;15.32;;;8.70;;
58091;SDS011;43896;48.178;11.578;2022-10-31T00:49:47;16.15;;;9.02;;
58091;SDS011;43896;48.178;11.578;2022-10-31T00:52:13;17.95;;;8.95;;
58091;SDS011;43896;48.178;11.578;2022-10-31T00:54:38;13.93;;;8.57;;
58091;SDS011;43896;48.178;11.578;2022-10-31T00:57:03;13.35;;;7.57;;
58091;SDS011;43896;48.178;11.578;2022-10-31T00:59:29;16.80;;;8.60;;
58091;SDS011;43896;48.178;11.578;2022-10-31T01:01:54;16.25;;;9.07;;
58091;SDS011;43896;48.178;11.578;2022-10-31T01:04:19;16.38;;;8.52;;
58091;SDS011;43896;48.178;11.578;2022-10-31T01:06:45;13.88;;;8.50;;
58091;SDS011;43896;48.178;11.578;2022-10-31T01:09:10;15.75;;;8.70;;
58091;SDS011;43896;48.178;11.578;2022-10-31T01:11:35;14.65;;;8.40;;
58091;SDS011;43896;48.178;11.578;2022-10-31T01:14:01;15.02;;;8.35;;
58091;SDS011;43896;48.178;11.578;2022-10-31T01:16:26;15.25;;;8.20;;
58091;SDS011;43896;48.178;11.578;2022-10-31T01:18:54;16.67;;;8.73;;
58091;SDS011;43896;48.178;11.578;2022-10-31T01:21:21;13.68;;;8.52;;
58091;SDS011;43896;48.178;11.578;2022-10-31T01:23:48;14.40;;;7.95;;
58091;SDS011;43896;48.178;11.578;2022-10-31T01:26:15;18.45;;;8.68;;
58091;SDS011;43896;48.178;11.578;2022-10-31T01:28:46;17.60;;;8.82;;
58091;SDS011;43896;48.178;11.578;2022-10-31T01:31:14;18.17;;;8.23;;
58091;SDS011;43896;48.178;11.578;2022-10-31T01:33:40;16.73;;;8.95;;
58091;SDS011;43896;48.178;11.578;2022-10-31T01:36:12;13.10;;;7.95;;
58091;SDS011;43896;48.178;11.578;2022-10-31T01:38:38;16.27;;;8.15;;
58091;SDS011;43896;48.178;11.578;2022-10-31T01:41:04;15.27;;;7.43;;
58091;SDS011;43896;48.178;11.578;2022-10-31T01:43:41;13.70;;;7.65;;
58091;SDS011;43896;48.178;11.578;2022-10-31T01:46:09;13.88;;;6.95;;
58091;SDS011;43896;48.178;11.578;2022-10-31T01:48:36;14.23;;;7.20;;
58091;SDS011;43896;48.178;11.578;2022-10-31T01:51:01;14.90;;;7.43;;
58091;SDS011;43896;48.178;11.578;2022-10-31T01:53:29;16.08;;;7.50;;
58091;SDS011;43896;48.178;11.578;2022-10-31T01:55:56;14.45;;;7.13;;
58091;SDS011;43896;48.178;11.578;2022-10-31T01:58:25;12.65;;;7.28;;
58091;SDS011;43896;48.178;11.578;2022-10-31T02:00:58;15.32;;;7.20;;
58091;SDS011;43896;48.178;11.578;2022-10-31T02:03:25;14.80;;;6.75;;
58091;SDS011;43896;48.178;11.578;2022-10-31T02:05:53;18.63;;;7.30;;
58091;SDS011;43896;48.178;11.578;2022-10-31T02:08:26;14.00;;;6.88;;
58091;SDS011;43896;48.178;11.578;2022-10-31T02:10:53;13.43;;;6.75;;
58091;SDS011;43896;48.178;11.578;2022-10-31T02:13:19;13.52;;;6.97;;
58091;SDS011;43896;48.178;11.578;2022-10-31T02:15:47;14.10;;;6.45;;
58091;SDS011;43896;48.178;11.578;2022-10-31T02:18:16;12.73;;;5.88;;
58091;SDS011;43896;48.178;11.578;2022-10-31T02:23:44;12.57;;;6.18;;
58091;SDS011;43896;48.178;11.578;2022-10-31T02:32:34;10.85;;;5.80;;
58091;SDS011;43896;48.178;11.578;2022-10-31T02:34:44;13.85;;;5.55;;
58091;SDS011;43896;48.178;11.578;2022-10-31T02:40:21;13.35;;;5.95;;
58091;SDS011;43896;48.178;11.578;2022-10-31T02:43:32;13.50;;;5.15;;
58091;SDS011;43896;48.178;11.578;2022-10-31T02:48:47;10.98;;;5.22;;
58091;SDS011;43896;48.178;11.578;2022-10-31T02:51:16;15.68;;;6.10;;
58091;SDS011;43896;48.178;11.578;2022-10-31T02:53:42;11.00;;;5.15;;
58091;SDS011;43896;48.178;11.578;2022-10-31T02:56:12;10.57;;;5.15;;
58091;SDS011;43896;48.178;11.578;2022-10-31T02:58:42;9.27;;;4.90;;
58091;SDS011;43896;48.178;11.578;2022-10-31T03:09:20;10.82;;;5.47;;
58091;SDS011;43896;48.178;11.578;2022-10-31T03:14:20;11.60;;;4.80;;
58091;SDS011;43896;48.178;11.578;2022-10-31T03:16:54;12.32;;;4.75;;
58091;SDS011;43896;48.178;11.578;2022-10-31T03:19:23;12.17;;;4.70;;
58091;SDS011;43896;48.178;11.578;2022-10-31T03:24:42;12.52;;;4.57;;
58091;SDS011;43896;48.178;11.578;2022-10-31T03:27:09;13.55;;;4.70;;
58091;SDS011;43896;48.178;11.578;2022-10-31T03:32:09;10.30;;;4.35;;
58091;SDS011;43896;48.178;11.578;2022-10-31T03:34:39;12.00;;;4.43;;
58091;SDS011;43896;48.178;11.578;2022-10-31T03:37:09;11.38;;;4.65;;
58091;SDS011;43896;48.178;11.578;2022-10-31T03:39:39;11.27;;;4.47;;
58091;SDS011;43896;48.178;11.578;2022-10-31T03:42:09;10.90;;;4.40;;
58091;SDS011;43896;48.178;11.578;2022-10-31T03:44:38;9.82;;;4.30;;
58091;SDS011;43896;48.178;11.578;2022-10-31T03:47:08;9.32;;;4.35;;
58091;SDS011;43896;48.178;11.578;2022-10-31T03:49:34;9.05;;;4.22;;
58091;SDS011;43896;48.178;11.578;2022-10-31T03:54:43;10.18;;;4.43;;
58091;SDS011;43896;48.178;11.578;2022-10-31T04:00:03;8.65;;;4.78;;
58091;SDS011;43896;48.178;11.578;2022-10-31T04:02:34;8.63;;;3.88;;
58091;SDS011;43896;48.178;11.578;2022-10-31T04:05:04;8.20;;;3.90;;
58091;SDS011;43896;48.178;11.578;2022-10-31T04:07:32;8.95;;;4.15;;
58091;SDS011;43896;48.178;11.578;2022-10-31T04:10:02;11.10;;;4.40;;
58091;SDS011;43896;48.178;11.578;2022-10-31T04:12:32;8.65;;;3.88;;
58091;SDS011;43896;48.178;11.578;2022-10-31T04:14:59;8.35;;;3.88;;
58091;SDS011;43896;48.178;11.578;2022-10-31T04:17:28;10.10;;;4.10;;
58091;SDS011;43896;48.178;11.578;2022-10-31T04:19:58;12.88;;;4.95;;
58091;SDS011;43896;48.178;11.578;2022-10-31T04:22:25;10.18;;;4.53;;
58091;SDS011;43896;48.178;11.578;2022-10-31T04:24:50;10.88;;;4.55;;
58091;SDS011;43896;48.178;11.578;2022-10-31T04:27:15;8.82;;;3.97;;
58091;SDS011;43896;48.178;11.578;2022-10-31T04:29:41;7.53;;;3.53;;
58091;SDS011;43896;48.178;11.578;2022-10-31T04:32:06;8.10;;;3.75;;
58091;SDS011;43896;48.178;11.578;2022-10-31T04:34:31;9.43;;;4.10;;
58091;SDS011;43896;48.178;11.578;2022-10-31T04:36:57;13.85;;;4.03;;
58091;SDS011;43896;48.178;11.578;2022-10-31T04:39:22;10.27;;;4.05;;
58091;SDS011;43896;48.178;11.578;2022-10-31T04:41:47;8.13;;;4.43;;
58091;SDS011;43896;48.178;11.578;2022-10-31T04:44:13;10.90;;;4.15;;
58091;SDS011;43896;48.178;11.578;2022-10-31T04:46:38;13.43;;;4.07;;
58091;SDS011;43896;48.178;11.578;2022-10-31T04:49:03;9.30;;;4.30;;
58091;SDS011;43896;48.178;11.578;2022-10-31T04:51:30;9.57;;;4.43;;
58091;SDS011;43896;48.178;11.578;2022-10-31T04:53:55;13.73;;;4.43;;
58091;SDS011;43896;48.178;11.578;2022-10-31T04:56:20;10.27;;;4.22;;
58091;SDS011;43896;48.178;11.578;2022-10-31T04:58:46;7.80;;;3.85;;
58091;SDS011;43896;48.178;11.578;2022-10-31T05:01:12;8.13;;;4.00;;
58091;SDS011;43896;48.178;11.578;2022-10-31T05:03:46;11.75;;;4.30;;
58091;SDS011;43896;48.178;11.578;2022-10-31T05:06:11;9.32;;;4.15;;
58091;SDS011;43896;48.178;11.578;2022-10-31T05:08:37;8.85;;;4.00;;
58091;SDS011;43896;48.178;11.578;2022-10-31T05:11:02;10.00;;;3.90;;
58091;SDS011;43896;48.178;11.578;2022-10-31T05:13:28;12.68;;;4.53;;
58091;SDS011;43896;48.178;11.578;2022-10-31T05:15:54;12.00;;;4.78;;
58091;SDS011;43896;48.178;11.578;2022-10-31T05:18:20;9.80;;;4.57;;
58091;SDS011;43896;48.178;11.578;2022-10-31T05:20:46;13.85;;;5.38;;
58091;SDS011;43896;48.178;11.578;2022-10-31T05:23:11;11.10;;;4.53;;
58091;SDS011;43896;48.178;11.578;2022-10-31T05:25:36;12.68;;;4.30;;
58091;SDS011;43896;48.178;11.578;2022-10-31T05:28:02;12.05;;;4.72;;
58091;SDS011;43896;48.178;11.578;2022-10-31T05:30:28;11.20;;;4.80;;
58091;SDS011;43896;48.178;11.578;2022-10-31T05:32:55;11.82;;;4.00;;
58091;SDS011;43896;48.178;11.578;2022-10-31T05:35:23;10.50;;;4.05;;
58091;SDS011;43896;48.178;11.578;2022-10-31T05:37:50;10.73;;;4.32;;
58091;SDS011;43896;48.178;11.578;2022-10-31T05:40:16;10.68;;;4.53;;
58091;SDS011;43896;48.178;11.578;2022-10-31T05:42:42;10.77;;;4.47;;
58091;SDS011;43896;48.178;11.578;2022-10-31T05:45:09;10.00;;;4.65;;
58091;SDS011;43896;48.178;11.578;2022-10-31T05:47:36;8.93;;;3.90;;
58091;SDS011;43896;48.178;11.578;2022-10-31T05:50:02;10.55;;;4.85;;
58091;SDS011;43896;48.178;11.578;2022-10-31T05:52:28;8.52;;;4.13;;
58091;SDS011;43896;48.178;11.578;2022-10-31T05:54:53;11.00;;;4.72;;
58091;SDS011;43896;48.178;11.578;2022-10-31T05:57:18;12.32;;;4.90;;
58091;SDS011;43896;48.178;11.578;2022-10-31T05:59:44;10.63;;;4.40;;
58091;SDS011;43896;48.178;11.578;2022-10-31T06:02:09;11.13;;;4.68;;
58091;SDS011;43896;48.178;11.578;2022-10-31T06:04:35;11.55;;;4.50;;
58091;SDS011;43896;48.178;11.578;2022-10-31T06:07:00;9.95;;;4.47;;
58091;SDS011;43896;48.178;11.578;2022-10-31T06:09:26;9.88;;;4.47;;
58091;SDS011;43896;48.178;11.578;2022-10-31T06:11:51;10.07;;;4.57;;
58091;SDS011;43896;48.178;11.578;2022-10-31T06:14:16;12.32;;;5.00;;
58091;SDS011;43896;48.178;11.578;2022-10-31T06:16:42;9.55;;;4.40;;
58091;SDS011;43896;48.178;11.578;2022-10-31T06:19:07;9.68;;;4.40;;
58091;SDS011;43896;48.178;11.578;2022-10-31T06:21:32;11.10;;;4.78;;
58091;SDS011;43896;48.178;11.578;2022-10-31T06:23:57;12.80;;;4.70;;
58091;SDS011;43896;48.178;11.578;2022-10-31T06:26:23;14.05;;;5.25;;
58091;SDS011;43896;48.178;11.578;2022-10-31T06:28:48;12.38;;;4.63;;
58091;SDS011;43896;48.178;11.578;2022-10-31T06:31:14;12.73;;;5.32;;
58091;SDS011;43896;48.178;11.578;2022-10-31T06:33:40;11.55;;;4.90;;
58091;SDS011;43896;48.178;11.578;2022-10-31T06:36:06;11.85;;;5.45;;
58091;SDS011;43896;48.178;11.578;2022-10-31T06:38:32;10.02;;;4.30;;
58091;SDS011;43896;48.178;11.578;2022-10-31T06:40:57;10.00;;;3.97;;
58091;SDS011;43896;48.178;11.578;2022-10-31T06:43:23;9.88;;;4.00;;
58091;SDS011;43896;48.178;11.578;2022-10-31T06:45:48;10.02;;;4.47;;
58091;SDS011;43896;48.178;11.578;2022-10-31T06:48:13;10.75;;;4.47;;
58091;SDS011;43896;48.178;11.578;2022-10-31T06:50:39;8.40;;;4.25;;
58091;SDS011;43896;48.178;11.578;2022-10-31T06:53:04;8.68;;;4.47;;
58091;SDS011;43896;48.178;11.578;2022-10-31T06:55:30;10.02;;;4.20;;
58091;SDS011;43896;48.178;11.578;2022-10-31T06:57:59;9.80;;;4.45;;
58091;SDS011;43896;48.178;11.578;2022-10-31T07:00:25;9.93;;;4.68;;
58091;SDS011;43896;48.178;11.578;2022-10-31T07:03:04;10.43;;;4.45;;
58091;SDS011;43896;48.178;11.578;2022-10-31T07:05:33;11.68;;;4.43;;
58091;SDS011;43896;48.178;11.578;2022-10-31T07:08:00;20.65;;;5.43;;
58091;SDS011;43896;48.178;11.578;2022-10-31T07:10:27;10.98;;;5.13;;
58091;SDS011;43896;48.178;11.578;2022-10-31T07:12:55;12.35;;;5.18;;
58091;SDS011;43896;48.178;11.578;2022-10-31T07:15:21;11.32;;;4.75;;
58091;SDS011;43896;48.178;11.578;2022-10-31T07:17:47;9.93;;;4.78;;
58091;SDS011;43896;48.178;11.578;2022-10-31T07:20:12;10.23;;;4.85;;
58091;SDS011;43896;48.178;11.578;2022-10-31T07:22:37;9.18;;;3.72;;
58091;SDS011;43896;48.178;11.578;2022-10-31T07:25:03;10.45;;;4.13;;
58091;SDS011;43896;48.178;11.578;2022-10-31T07:27:34;8.65;;;4.43;;
58091;SDS011;43896;48.178;11.578;2022-10-31T07:30:00;10.38;;;4.35;;
58091;SDS011;43896;48.178;11.578;2022-10-31T07:32:26;14.73;;;4.40;;
58091;SDS011;43896;48.178;11.578;2022-10-31T07:34:51;9.90;;;4.55;;
58091;SDS011;43896;48.178;11.578;2022-10-31T07:37:16;11.30;;;4.90;;
58091;SDS011;43896;48.178;11.578;2022-10-31T07:39:42;10.95;;;4.22;;
58091;SDS011;43896;48.178;11.578;2022-10-31T07:42:07;9.32;;;4.13;;
58091;SDS011;43896;48.178;11.578;2022-10-31T07:44:32;10.23;;;4.70;;
58091;SDS011;43896;48.178;11.578;2022-10-31T07:46:57;11.45;;;4.43;;
58091;SDS011;43896;48.178;11.578;2022-10-31T07:49:23;13.43;;;4.93;;
58091;SDS011;43896;48.178;11.578;2022-10-31T07:51:50;9.30;;;4.53;;
58091;SDS011;43896;48.178;11.578;2022-10-31T07:54:15;11.60;;;4.45;;
58091;SDS011;43896;48.178;11.578;2022-10-31T07:56:41;9.65;;;4.65;;
58091;SDS011;43896;48.178;11.578;2022-10-31T07:59:06;9.43;;;4.15;;
58091;SDS011;43896;48.178;11.578;2022-10-31T08:01:32;9.55;;;5.10;;
58091;SDS011;43896;48.178;11.578;2022-10-31T08:03:58;10.23;;;4.95;;
58091;SDS011;43896;48.178;11.578;2022-10-31T08:06:23;12.68;;;5.50;;
58091;SDS011;43896;48.178;11.578;2022-10-31T08:08:48;13.05;;;5.45;;
58091;SDS011;43896;48.178;11.578;2022-10-31T08:11:14;13.07;;;6.30;;
58091;SDS011;43896;48.178;11.578;2022-10-31T08:13:39;12.40;;;6.85;;
58091;SDS011;43896;48.178;11.578;2022-10-31T08:16:05;13.18;;;6.20;;
58091;SDS011;43896;48.178;11.578;2022-10-31T08:18:32;16.48;;;6.72;;
58091;SDS011;43896;48.178;11.578;2022-10-31T08:20:57;14.57;;;7.00;;
58091;SDS011;43896;48.178;11.578;2022-10-31T08:23:22;12.85;;;6.40;;
58091;SDS011;43896;48.178;11.578;2022-10-31T08:25:48;14.52;;;6.28;;
58091;SDS011;43896;48.178;11.578;2022-10-31T08:28:13;14.55;;;6.43;;
58091;SDS011;43896;48.178;11.578;2022-10-31T08:30:40;13.77;;;7.38;;
58091;SDS011;43896;48.178;11.578;2022-10-31T08:33:08;16.40;;;7.50;;
58091;SDS011;43896;48.178;11.578;2022-10-31T08:35:38;15.50;;;7.72;;
58091;SDS011;43896;48.178;11.578;2022-10-31T08:38:04;13.38;;;7.72;;
58091;SDS011;43896;48.178;11.578;2022-10-31T08:40:30;17.23;;;7.72;;
58091;SDS011;43896;48.178;11.578;2022-10-31T08:43:00;16.02;;;7.78;;
58091;SDS011;43896;48.178;11.578;2022-10-31T08:45:27;14.65;;;6.88;;
58091;SDS011;43896;48.178;11.578;2022-10-31T08:47:57;13.60;;;7.10;;
58091;SDS011;43896;48.178;11.578;2022-10-31T08:50:24;13.48;;;7.10;;
58091;SDS011;43896;48.178;11.578;2022-10-31T08:52:49;14.02;;;7.55;;
58091;SDS011;43896;48.178;11.578;2022-10-31T08:55:14;13.23;;;6.57;;
58091;SDS011;43896;48.178;11.578;2022-10-31T08:57:40;16.60;;;6.72;;
58091;SDS011;43896;48.178;11.578;2022-10-31T09:00:06;16.52;;;6.28;;
58091;SDS011;43896;48.178;11.578;2022-10-31T09:02:32;16.00;;;6.57;;
58091;SDS011;43896;48.178;11.578;2022-10-31T09:04:57;14.15;;;6.10;;
58091;SDS011;43896;48.178;11.578;2022-10-31T09:07:22;16.13;;;6.30;;
58091;SDS011;43896;48.178;11.578;2022-10-31T09:09:48;15.32;;;6.35;;
58091;SDS011;43896;48.178;11.578;2022-10-31T09:12:13;12.27;;;5.57;;
58091;SDS011;43896;48.178;11.578;2022-10-31T09:14:38;9.63;;;5.60;;
58091;SDS011;43896;48.178;11.578;2022-10-31T09:17:04;14.13;;;6.28;;
58091;SDS011;43896;48.178;11.578;2022-10-31T09:19:29;13.77;;;6.03;;
58091;SDS011;43896;48.178;11.578;2022-10-31T09:21:55;11.45;;;5.57;;
58091;SDS011;43896;48.178;11.578;2022-10-31T09:24:20;12.82;;;5.03;;
58091;SDS011;43896;48.178;11.578;2022-10-31T09:26:46;10.80;;;4.95;;
58091;SDS011;43896;48.178;11.578;2022-10-31T09:29:11;10.55;;;5.20;;
58091;SDS011;43896;48.178;11.578;2022-10-31T09:31:36;10.75;;;4.93;;
58091;SDS011;43896;48.178;11.578;2022-10-31T09:34:02;10.98;;;4.60;;
58091;SDS011;43896;48.178;11.578;2022-10-31T09:36:27;11.27;;;5.10;;
58091;SDS011;43896;48.178;11.578;2022-10-31T09:38:52;12.38;;;4.82;;
58091;SDS011;43896;48.178;11.578;2022-10-31T09:48:12;11.70;;;4.18;;
58091;SDS011;43896;48.178;11.578;2022-10-31T09:53:00;13.85;;;4.70;;
58091;SDS011;43896;48.178;11.578;2022-10-31T09:55:35;13.23;;;4.18;;
58091;SDS011;43896;48.178;11.578;2022-10-31T09:58:03;11.20;;;4.13;;
58091;SDS011;43896;48.178;11.578;2022-10-31T10:00:30;9.75;;;3.75;;
58091;SDS011;43896;48.178;11.578;2022-10-31T10:08:30;8.85;;;3.28;;
58091;SDS011;43896;48.178;11.578;2022-10-31T10:24:46;11.18;;;3.60;;
58091;SDS011;43896;48.178;11.578;2022-10-31T10:33:14;10.23;;;3.22;;
58091;SDS011;43896;48.178;11.578;2022-10-31T10:35:46;11.57;;;3.30;;
58091;SDS011;43896;48.178;11.578;2022-10-31T10:38:35;10.20;;;3.40;;
58091;SDS011;43896;48.178;11.578;2022-10-31T10:41:23;11.13;;;3.00;;
58091;SDS011;43896;48.178;11.578;2022-10-31T10:43:52;11.65;;;3.22;;
58091;SDS011;43896;48.178;11.578;2022-10-31T10:52:27;11.88;;;3.10;;
58091;SDS011;43896;48.178;11.578;2022-10-31T10:57:59;8.77;;;3.00;;
58091;SDS011;43896;48.178;11.578;2022-10-31T11:00:29;10.27;;;3.30;;
58091;SDS011;43896;48.178;11.578;2022-10-31T11:02:56;12.45;;;3.10;;
58091;SDS011;43896;48.178;11.578;2022-10-31T11:05:28;11.18;;;3.10;;
58091;SDS011;43896;48.178;11.578;2022-10-31T11:07:59;13.63;;;3.60;;
58091;SDS011;43896;48.178;11.578;2022-10-31T11:10:24;9.77;;;2.92;;
58091;SDS011;43896;48.178;11.578;2022-10-31T11:13:23;7.72;;;2.90;;
58091;SDS011;43896;48.178;11.578;2022-10-31T11:18:26;8.13;;;3.00;;
58091;SDS011;43896;48.178;11.578;2022-10-31T11:20:55;9.93;;;3.03;;
58091;SDS011;43896;48.178;11.578;2022-10-31T11:23:23;8.60;;;2.90;;
58091;SDS011;43896;48.178;11.578;2022-10-31T11:28:21;10.27;;;2.70;;
58091;SDS011;43896;48.178;11.578;2022-10-31T11:35:54;8.25;;;2.78;;
58091;SDS011;43896;48.178;11.578;2022-10-31T11:38:21;7.95;;;2.60;;
58091;SDS011;43896;48.178;11.578;2022-10-31T11:43:53;9.98;;;2.47;;
58091;SDS011;43896;48.178;11.578;2022-10-31T11:46:27;8.85;;;2.88;;
58091;SDS011;43896;48.178;11.578;2022-10-31T11:48:54;9.13;;;2.50;;
58091;SDS011;43896;48.178;11.578;2022-10-31T11:51:24;9.98;;;2.80;;
58091;SDS011;43896;48.178;11.578;2022-10-31T11:53:54;9.63;;;2.50;;
58091;SDS011;43896;48.178;11.578;2022-10-31T11:56:22;8.73;;;2.80;;
58091;SDS011;43896;48.178;11.578;2022-10-31T11:59:02;9.35;;;2.60;;
58091;SDS011;43896;48.178;11.578;2022-10-31T12:01:30;10.57;;;2.83;;
58091;SDS011;43896;48.178;11.578;2022-10-31T12:04:09;11.73;;;2.47;;
58091;SDS011;43896;48.178;11.578;2022-10-31T12:06:37;8.73;;;2.88;;
58091;SDS011;43896;48.178;11.578;2022-10-31T12:14:32;9.23;;;2.60;;
58091;SDS011;43896;48.178;11.578;2022-10-31T12:17:09;10.63;;;2.67;;
58091;SDS011;43896;48.178;11.578;2022-10-31T12:19:48;8.27;;;2.80;;
58091;SDS011;43896;48.178;11.578;2022-10-31T12:33:54;8.63;;;2.70;;
58091;SDS011;43896;48.178;11.578;2022-10-31T12:47:57;10.43;;;3.03;;
58091;SDS011;43896;48.178;11.578;2022-10-31T12:50:47;8.02;;;2.75;;
58091;SDS011;43896;48.178;11.578;2022-10-31T12:53:29;10.63;;;3.28;;
58091;SDS011;43896;48.178;11.578;2022-10-31T12:56:19;10.45;;;3.08;;
58091;SDS011;43896;48.178;11.578;2022-10-31T12:59:30;9.00;;;2.80;;
58091;SDS011;43896;48.178;11.578;2022-10-31T13:01:48;13.43;;;3.38;;
58091;SDS011;43896;48.178;11.578;2022-10-31T13:07:02;10.57;;;3.05;;
58091;SDS011;43896;48.178;11.578;2022-10-31T13:09:35;10.15;;;2.95;;
58091;SDS011;43896;48.178;11.578;2022-10-31T13:12:10;9.40;;;3.28;;
58091;SDS011;43896;48.178;11.578;2022-10-31T13:14:40;8.70;;;3.03;;
58091;SDS011;43896;48.178;11.578;2022-10-31T13:17:13;10.32;;;3.40;;
58091;SDS011;43896;48.178;11.578;2022-10-31T13:22:39;10.10;;;3.00;;
58091;SDS011;43896;48.178;11.578;2022-10-31T13:30:15;9.60;;;3.22;;
58091;SDS011;43896;48.178;11.578;2022-10-31T13:38:24;11.27;;;3.17;;
58091;SDS011;43896;48.178;11.578;2022-10-31T13:41:17;12.32;;;3.60;;
58091;SDS011;43896;48.178;11.578;2022-10-31T13:46:49;9.23;;;3.25;;
58091;SDS011;43896;48.178;11.578;2022-10-31T13:51:49;11.55;;;3.15;;
58091;SDS011;43896;48.178;11.578;2022-10-31T13:56:48;9.00;;;3.15;;
58091;SDS011;43896;48.178;11.578;2022-10-31T13:59:17;11.75;;;3.20;;
58091;SDS011;43896;48.178;11.578;2022-10-31T14:01:55;11.50;;;3.63;;
58091;SDS011;43896;48.178;11.578;2022-10-31T14:04:28;12.07;;;3.58;;
58091;SDS011;43896;48.178;11.578;2022-10-31T14:09:50;10.20;;;3.30;;
58091;SDS011;43896;48.178;11.578;2022-10-31T14:12:40;9.65;;;3.30;;
58091;SDS011;43896;48.178;11.578;2022-10-31T14:17:50;9.77;;;3.65;;
58091;SDS011;43896;48.178;11.578;2022-10-31T14:20:21;10.80;;;3.80;;
58091;SDS011;43896;48.178;11.578;2022-10-31T14:22:50;12.93;;;4.32;;
58091;SDS011;43896;48.178;11.578;2022-10-31T14:25:31;12.73;;;3.75;;
58091;SDS011;43896;48.178;11.578;2022-10-31T14:28:01;10.85;;;4.18;;
58091;SDS011;43896;48.178;11.578;2022-10-31T14:30:50;11.50;;;4.60;;
58091;SDS011;43896;48.178;11.578;2022-10-31T14:33:18;10.15;;;4.07;;
58091;SDS011;43896;48.178;11.578;2022-10-31T14:35:53;12.85;;;4.60;;
58091;SDS011;43896;48.178;11.578;2022-10-31T14:41:23;13.20;;;4.82;;
58091;SDS011;43896;48.178;11.578;2022-10-31T14:52:31;10.60;;;5.40;;
58091;SDS011;43896;48.178;11.578;2022-10-31T14:54:57;12.75;;;5.50;;
58091;SDS011;43896;48.178;11.578;2022-10-31T14:57:31;18.33;;;6.55;;
58091;SDS011;43896;48.178;11.578;2022-10-31T15:00:04;13.43;;;5.95;;
58091;SDS011;43896;48.178;11.578;2022-10-31T15:02:40;16.50;;;7.72;;
58091;SDS011;43896;48.178;11.578;2022-10-31T15:05:13;17.30;;;7.72;;
58091;SDS011;43896;48.178;11.578;2022-10-31T15:07:50;15.88;;;8.18;;
58091;SDS011;43896;48.178;11.578;2022-10-31T15:10:31;16.65;;;7.72;;
58091;SDS011;43896;48.178;11.578;2022-10-31T15:15:54;15.63;;;7.50;;
58091;SDS011;43896;48.178;11.578;2022-10-31T15:18:24;15.93;;;7.50;;
58091;SDS011;43896;48.178;11.578;2022-10-31T15:20:52;15.98;;;7.50;;
58091;SDS011;43896;48.178;11.578;2022-10-31T15:23:26;16.65;;;7.88;;
58091;SDS011;43896;48.178;11.578;2022-10-31T15:26:00;13.95;;;7.93;;
58091;SDS011;43896;48.178;11.578;2022-10-31T15:28:28;15.48;;;8.02;;
58091;SDS011;43896;48.178;11.578;2022-10-31T15:30:56;19.30;;;8.55;;
58091;SDS011;43896;48.178;11.578;2022-10-31T15:33:30;16.58;;;7.72;;
58091;SDS011;43896;48.178;11.578;2022-10-31T15:36:04;15.55;;;9.07;;
58091;SDS011;43896;48.178;11.578;2022-10-31T15:38:30;13.98;;;8.25;;
58091;SDS011;43896;48.178;11.578;2022-10-31T15:41:05;16.95;;;8.70;;
58091;SDS011;43896;48.178;11.578;2022-10-31T15:43:49;13.35;;;8.13;;
58091;SDS011;43896;48.178;11.578;2022-10-31T15:46:14;17.23;;;8.75;;
58091;SDS011;43896;48.178;11.578;2022-10-31T15:48:43;17.20;;;7.78;;
58091;SDS011;43896;48.178;11.578;2022-10-31T15:51:12;15.02;;;8.38;;
58091;SDS011;43896;48.178;11.578;2022-10-31T15:53:48;15.55;;;8.13;;
58091;SDS011;43896;48.178;11.578;2022-10-31T15:56:22;13.27;;;7.30;;
58091;SDS011;43896;48.178;11.578;2022-10-31T15:58:51;14.15;;;7.57;;
58091;SDS011;43896;48.178;11.578;2022-10-31T16:01:22;17.08;;;8.43;;
58091;SDS011;43896;48.178;11.578;2022-10-31T16:06:37;14.02;;;7.57;;
58091;SDS011;43896;48.178;11.578;2022-10-31T16:09:03;16.83;;;7.88;;
58091;SDS011;43896;48.178;11.578;2022-10-31T16:11:45;13.32;;;7.28;;
58091;SDS011;43896;48.178;11.578;2022-10-31T16:16:41;13.38;;;7.50;;
58091;SDS011;43896;48.178;11.578;2022-10-31T16:19:14;28.30;;;19.42;;
58091;SDS011;43896;48.178;11.578;2022-10-31T16:21:44;28.55;;;18.85;;
58091;SDS011;43896;48.178;11.578;2022-10-31T16:24:15;15.90;;;9.65;;
58091;SDS011;43896;48.178;11.578;2022-10-31T16:26:51;14.90;;;8.45;;
58091;SDS011;43896;48.178;11.578;2022-10-31T16:31:58;16.60;;;8.13;;
58091;SDS011;43896;48.178;11.578;2022-10-31T16:34:24;15.13;;;7.90;;
58091;SDS011;43896;48.178;11.578;2022-10-31T16:36:50;14.18;;;8.05;;
58091;SDS011;43896;48.178;11.578;2022-10-31T16:39:15;16.48;;;8.63;;
58091;SDS011;43896;48.178;11.578;2022-10-31T16:41:43;16.42;;;8.13;;
58091;SDS011;43896;48.178;11.578;2022-10-31T16:44:14;14.43;;;8.10;;
58091;SDS011;43896;48.178;11.578;2022-10-31T16:46:43;15.05;;;7.75;;
58091;SDS011;43896;48.178;11.578;2022-10-31T16:49:09;14.10;;;7.85;;
58091;SDS011;43896;48.178;11.578;2022-10-31T16:51:35;13.60;;;7.90;;
58091;SDS011;43896;48.178;11.578;2022-10-31T16:54:00;13.50;;;8.18;;
58091;SDS011;43896;48.178;11.578;2022-10-31T16:56:33;15.35;;;8.32;;
58091;SDS011;43896;48.178;11.578;2022-10-31T16:59:01;16.77;;;8.65;;
58091;SDS011;43896;48.178;11.578;2022-10-31T17:01:29;16.35;;;8.52;;
58091;SDS011;43896;48.178;11.578;2022-10-31T17:03:55;15.77;;;9.13;;
58091;SDS011;43896;48.178;11.578;2022-10-31T17:06:20;17.75;;;10.07;;
58091;SDS011;43896;48.178;11.578;2022-10-31T17:08:45;16.10;;;9.45;;
58091;SDS011;43896;48.178;11.578;2022-10-31T17:11:16;19.20;;;9.57;;
58091;SDS011;43896;48.178;11.578;2022-10-31T17:13:45;20.58;;;10.50;;
58091;SDS011;43896;48.178;11.578;2022-10-31T17:16:11;18.20;;;10.60;;
58091;SDS011;43896;48.178;11.578;2022-10-31T17:18:39;20.05;;;11.20;;
58091;SDS011;43896;48.178;11.578;2022-10-31T17:21:04;18.10;;;10.52;;
58091;SDS011;43896;48.178;11.578;2022-10-31T17:23:30;19.90;;;10.73;;
58091;SDS011;43896;48.178;11.578;2022-10-31T17:25:57;20.65;;;11.43;;
58091;SDS011;43896;48.178;11.578;2022-10-31T17:28:23;20.15;;;12.10;;